sensor_id;sensor_type;location;lat;lon;timestamp;P1;durP1;ratioP1;P2;durP2;ratioP2
27670;SDS011;15077;49.704;9.908;2023-01-25T00:00:37;14.40;;;8.10;;
27670;SDS011;15077;49.704;9.908;2023-01-25T00:03:02;17.65;;;10.15;;
27670;SDS011;15077;49.704;9.908;2023-01-25T00:05:28;17.73;;;10.25;;
27670;SDS011;15077;49.704;9.908;2023-01-25T00:07:54;14.63;;;7.97;;
27670;SDS011;15077;49.704;9.908;2023-01-25T00:10:20;13.20;;;6.82;;
27670;SDS011;15077;49.704;9.908;2023-01-25T00:12:45;14.82;;;8.98;;
27670;SDS011;15077;49.704;9.908;2023-01-25T00:15:11;19.85;;;10.80;;
27670;SDS011;15077;49.704;9.908;2023-01-25T00:17:37;18.27;;;10.60;;
27670;SDS011;15077;49.704;9.908;2023-01-25T00:20:03;17.08;;;8.43;;
27670;SDS011;15077;49.704;9.908;2023-01-25T00:22:29;13.35;;;8.68;;
27670;SDS011;15077;49.704;9.908;2023-01-25T00:24:55;19.45;;;11.20;;
27670;SDS011;15077;49.704;9.908;2023-01-25T00:27:20;16.40;;;9.93;;
27670;SDS011;15077;49.704;9.908;2023-01-25T00:29:46;13.70;;;8.45;;
27670;SDS011;15077;49.704;9.908;2023-01-25T00:34:45;16.58;;;8.40;;
27670;SDS011;15077;49.704;9.908;2023-01-25T00:37:22;13.32;;;7.65;;
27670;SDS011;15077;49.704;9.908;2023-01-25T00:39:54;17.33;;;10.32;;
27670;SDS011;15077;49.704;9.908;2023-01-25T00:42:20;17.27;;;9.75;;
27670;SDS011;15077;49.704;9.908;2023-01-25T00:44:46;18.20;;;10.48;;
27670;SDS011;15077;49.704;9.908;2023-01-25T00:47:12;24.40;;;12.15;;
27670;SDS011;15077;49.704;9.908;2023-01-25T00:49:39;17.70;;;9.35;;
27670;SDS011;15077;49.704;9.908;2023-01-25T00:52:08;15.80;;;9.38;;
27670;SDS011;15077;49.704;9.908;2023-01-25T00:54:35;16.83;;;9.50;;
27670;SDS011;15077;49.704;9.908;2023-01-25T00:57:01;20.05;;;10.40;;
27670;SDS011;15077;49.704;9.908;2023-01-25T00:59:27;16.10;;;9.40;;
27670;SDS011;15077;49.704;9.908;2023-01-25T01:01:53;16.13;;;10.40;;
27670;SDS011;15077;49.704;9.908;2023-01-25T01:04:20;21.23;;;11.80;;
27670;SDS011;15077;49.704;9.908;2023-01-25T01:06:51;17.80;;;9.93;;
27670;SDS011;15077;49.704;9.908;2023-01-25T01:09:18;12.70;;;7.75;;
27670;SDS011;15077;49.704;9.908;2023-01-25T01:11:46;23.13;;;12.55;;
27670;SDS011;15077;49.704;9.908;2023-01-25T01:14:12;20.40;;;11.68;;
27670;SDS011;15077;49.704;9.908;2023-01-25T01:16:38;18.98;;;10.02;;
27670;SDS011;15077;49.704;9.908;2023-01-25T01:19:05;20.83;;;10.30;;
27670;SDS011;15077;49.704;9.908;2023-01-25T01:21:31;15.77;;;8.93;;
27670;SDS011;15077;49.704;9.908;2023-01-25T01:23:57;16.27;;;9.15;;
27670;SDS011;15077;49.704;9.908;2023-01-25T01:26:23;16.05;;;8.55;;
27670;SDS011;15077;49.704;9.908;2023-01-25T01:28:50;16.35;;;9.43;;
27670;SDS011;15077;49.704;9.908;2023-01-25T01:31:20;19.02;;;10.95;;
27670;SDS011;15077;49.704;9.908;2023-01-25T01:33:49;17.77;;;10.80;;
27670;SDS011;15077;49.704;9.908;2023-01-25T01:36:19;16.60;;;9.25;;
27670;SDS011;15077;49.704;9.908;2023-01-25T01:38:48;15.35;;;8.90;;
27670;SDS011;15077;49.704;9.908;2023-01-25T01:41:15;19.92;;;10.40;;
27670;SDS011;15077;49.704;9.908;2023-01-25T01:43:41;17.80;;;10.23;;
27670;SDS011;15077;49.704;9.908;2023-01-25T01:49:00;16.02;;;8.48;;
27670;SDS011;15077;49.704;9.908;2023-01-25T02:02:16;22.05;;;13.40;;
27670;SDS011;15077;49.704;9.908;2023-01-25T02:04:44;25.95;;;11.98;;
27670;SDS011;15077;49.704;9.908;2023-01-25T02:07:20;22.05;;;12.48;;
27670;SDS011;15077;49.704;9.908;2023-01-25T02:09:54;25.90;;;13.33;;
27670;SDS011;15077;49.704;9.908;2023-01-25T02:12:22;19.27;;;11.77;;
27670;SDS011;15077;49.704;9.908;2023-01-25T02:14:51;21.77;;;11.88;;
27670;SDS011;15077;49.704;9.908;2023-01-25T02:17:22;22.05;;;11.80;;
27670;SDS011;15077;49.704;9.908;2023-01-25T02:19:58;22.75;;;12.35;;
27670;SDS011;15077;49.704;9.908;2023-01-25T02:22:36;18.02;;;10.45;;
27670;SDS011;15077;49.704;9.908;2023-01-25T02:25:30;20.88;;;11.52;;
27670;SDS011;15077;49.704;9.908;2023-01-25T02:27:58;24.08;;;12.68;;
27670;SDS011;15077;49.704;9.908;2023-01-25T02:31:04;23.33;;;13.05;;
27670;SDS011;15077;49.704;9.908;2023-01-25T02:33:31;22.48;;;12.30;;
27670;SDS011;15077;49.704;9.908;2023-01-25T02:36:12;22.60;;;12.05;;
27670;SDS011;15077;49.704;9.908;2023-01-25T02:39:08;20.08;;;11.50;;
27670;SDS011;15077;49.704;9.908;2023-01-25T02:41:43;20.25;;;11.73;;
27670;SDS011;15077;49.704;9.908;2023-01-25T02:44:25;23.25;;;13.30;;
27670;SDS011;15077;49.704;9.908;2023-01-25T02:46:57;20.10;;;11.95;;
27670;SDS011;15077;49.704;9.908;2023-01-25T02:49:25;22.17;;;11.95;;
27670;SDS011;15077;49.704;9.908;2023-01-25T02:51:53;23.95;;;13.20;;
27670;SDS011;15077;49.704;9.908;2023-01-25T02:54:22;22.27;;;12.60;;
27670;SDS011;15077;49.704;9.908;2023-01-25T02:56:51;23.83;;;11.80;;
27670;SDS011;15077;49.704;9.908;2023-01-25T02:59:18;20.27;;;11.55;;
27670;SDS011;15077;49.704;9.908;2023-01-25T03:01:46;24.65;;;13.70;;
27670;SDS011;15077;49.704;9.908;2023-01-25T03:04:14;23.92;;;13.73;;
27670;SDS011;15077;49.704;9.908;2023-01-25T03:06:41;23.85;;;12.88;;
27670;SDS011;15077;49.704;9.908;2023-01-25T03:09:09;24.55;;;12.95;;
27670;SDS011;15077;49.704;9.908;2023-01-25T03:11:36;19.13;;;11.43;;
27670;SDS011;15077;49.704;9.908;2023-01-25T03:14:02;17.33;;;11.10;;
27670;SDS011;15077;49.704;9.908;2023-01-25T03:16:29;21.92;;;11.57;;
27670;SDS011;15077;49.704;9.908;2023-01-25T03:18:57;25.17;;;13.63;;
27670;SDS011;15077;49.704;9.908;2023-01-25T03:21:25;24.90;;;13.35;;
27670;SDS011;15077;49.704;9.908;2023-01-25T03:24:02;25.75;;;12.63;;
27670;SDS011;15077;49.704;9.908;2023-01-25T03:26:29;25.30;;;12.00;;
27670;SDS011;15077;49.704;9.908;2023-01-25T03:29:16;21.40;;;13.15;;
27670;SDS011;15077;49.704;9.908;2023-01-25T03:31:41;24.13;;;13.27;;
27670;SDS011;15077;49.704;9.908;2023-01-25T03:34:07;23.30;;;11.98;;
27670;SDS011;15077;49.704;9.908;2023-01-25T03:36:33;17.20;;;10.27;;
27670;SDS011;15077;49.704;9.908;2023-01-25T03:38:58;22.92;;;13.10;;
27670;SDS011;15077;49.704;9.908;2023-01-25T03:41:24;28.08;;;14.40;;
27670;SDS011;15077;49.704;9.908;2023-01-25T03:43:52;23.85;;;12.70;;
27670;SDS011;15077;49.704;9.908;2023-01-25T03:46:17;20.63;;;11.95;;
27670;SDS011;15077;49.704;9.908;2023-01-25T03:48:44;21.58;;;12.02;;
27670;SDS011;15077;49.704;9.908;2023-01-25T03:51:11;26.50;;;13.57;;
27670;SDS011;15077;49.704;9.908;2023-01-25T03:53:38;22.33;;;11.55;;
27670;SDS011;15077;49.704;9.908;2023-01-25T03:56:05;24.70;;;13.30;;
27670;SDS011;15077;49.704;9.908;2023-01-25T03:58:36;22.70;;;13.57;;
27670;SDS011;15077;49.704;9.908;2023-01-25T04:01:05;23.73;;;13.40;;
27670;SDS011;15077;49.704;9.908;2023-01-25T04:03:32;27.13;;;14.73;;
27670;SDS011;15077;49.704;9.908;2023-01-25T04:05:59;22.40;;;12.30;;
27670;SDS011;15077;49.704;9.908;2023-01-25T04:08:27;20.73;;;11.85;;
27670;SDS011;15077;49.704;9.908;2023-01-25T04:10:59;25.20;;;12.80;;
27670;SDS011;15077;49.704;9.908;2023-01-25T04:13:28;22.88;;;12.52;;
27670;SDS011;15077;49.704;9.908;2023-01-25T04:15:57;22.50;;;12.30;;
27670;SDS011;15077;49.704;9.908;2023-01-25T04:18:25;22.15;;;13.43;;
27670;SDS011;15077;49.704;9.908;2023-01-25T04:20:53;23.10;;;12.73;;
27670;SDS011;15077;49.704;9.908;2023-01-25T04:23:21;21.50;;;12.32;;
27670;SDS011;15077;49.704;9.908;2023-01-25T04:25:53;28.55;;;14.23;;
27670;SDS011;15077;49.704;9.908;2023-01-25T04:28:23;24.77;;;13.10;;
27670;SDS011;15077;49.704;9.908;2023-01-25T04:33:22;18.00;;;9.88;;
27670;SDS011;15077;49.704;9.908;2023-01-25T04:35:50;24.13;;;12.20;;
27670;SDS011;15077;49.704;9.908;2023-01-25T04:38:17;23.40;;;11.65;;
27670;SDS011;15077;49.704;9.908;2023-01-25T04:40:44;21.15;;;11.13;;
27670;SDS011;15077;49.704;9.908;2023-01-25T04:43:11;22.20;;;12.23;;
27670;SDS011;15077;49.704;9.908;2023-01-25T04:45:44;22.98;;;12.07;;
27670;SDS011;15077;49.704;9.908;2023-01-25T04:48:11;23.67;;;11.57;;
27670;SDS011;15077;49.704;9.908;2023-01-25T04:50:38;24.75;;;12.07;;
27670;SDS011;15077;49.704;9.908;2023-01-25T04:53:07;23.73;;;11.77;;
27670;SDS011;15077;49.704;9.908;2023-01-25T04:55:36;22.05;;;12.77;;
27670;SDS011;15077;49.704;9.908;2023-01-25T04:58:04;19.58;;;11.68;;
27670;SDS011;15077;49.704;9.908;2023-01-25T05:00:32;20.27;;;11.70;;
27670;SDS011;15077;49.704;9.908;2023-01-25T05:03:00;24.42;;;13.82;;
27670;SDS011;15077;49.704;9.908;2023-01-25T05:05:27;33.08;;;13.77;;
27670;SDS011;15077;49.704;9.908;2023-01-25T05:07:52;25.58;;;12.80;;
27670;SDS011;15077;49.704;9.908;2023-01-25T05:10:18;25.35;;;14.52;;
27670;SDS011;15077;49.704;9.908;2023-01-25T05:12:44;24.15;;;13.68;;
27670;SDS011;15077;49.704;9.908;2023-01-25T05:15:10;19.20;;;10.32;;
27670;SDS011;15077;49.704;9.908;2023-01-25T05:17:36;16.50;;;9.85;;
27670;SDS011;15077;49.704;9.908;2023-01-25T05:20:02;20.77;;;11.82;;
27670;SDS011;15077;49.704;9.908;2023-01-25T05:22:29;23.70;;;13.45;;
27670;SDS011;15077;49.704;9.908;2023-01-25T05:24:54;24.58;;;13.13;;
27670;SDS011;15077;49.704;9.908;2023-01-25T05:27:21;23.42;;;13.27;;
27670;SDS011;15077;49.704;9.908;2023-01-25T05:29:46;21.25;;;12.75;;
27670;SDS011;15077;49.704;9.908;2023-01-25T05:32:13;25.17;;;13.60;;
27670;SDS011;15077;49.704;9.908;2023-01-25T05:37:12;26.23;;;14.50;;
27670;SDS011;15077;49.704;9.908;2023-01-25T05:39:41;19.42;;;10.50;;
27670;SDS011;15077;49.704;9.908;2023-01-25T05:42:11;19.35;;;11.63;;
27670;SDS011;15077;49.704;9.908;2023-01-25T05:44:42;20.83;;;12.32;;
27670;SDS011;15077;49.704;9.908;2023-01-25T05:47:11;22.10;;;11.18;;
27670;SDS011;15077;49.704;9.908;2023-01-25T05:49:38;22.08;;;12.98;;
27670;SDS011;15077;49.704;9.908;2023-01-25T05:52:04;17.73;;;10.38;;
27670;SDS011;15077;49.704;9.908;2023-01-25T05:54:30;25.27;;;13.55;;
27670;SDS011;15077;49.704;9.908;2023-01-25T05:56:55;22.23;;;13.30;;
27670;SDS011;15077;49.704;9.908;2023-01-25T05:59:21;20.13;;;10.80;;
27670;SDS011;15077;49.704;9.908;2023-01-25T06:01:47;16.38;;;8.93;;
27670;SDS011;15077;49.704;9.908;2023-01-25T06:04:13;18.48;;;9.45;;
27670;SDS011;15077;49.704;9.908;2023-01-25T06:06:40;14.38;;;7.80;;
27670;SDS011;15077;49.704;9.908;2023-01-25T06:09:06;17.10;;;8.63;;
27670;SDS011;15077;49.704;9.908;2023-01-25T06:11:34;13.80;;;8.35;;
27670;SDS011;15077;49.704;9.908;2023-01-25T06:13:59;14.13;;;7.93;;
27670;SDS011;15077;49.704;9.908;2023-01-25T06:16:25;18.15;;;10.05;;
27670;SDS011;15077;49.704;9.908;2023-01-25T06:18:51;15.02;;;8.25;;
27670;SDS011;15077;49.704;9.908;2023-01-25T06:21:17;17.02;;;9.30;;
27670;SDS011;15077;49.704;9.908;2023-01-25T06:23:43;20.85;;;10.73;;
27670;SDS011;15077;49.704;9.908;2023-01-25T06:26:12;18.73;;;10.82;;
27670;SDS011;15077;49.704;9.908;2023-01-25T06:28:39;19.00;;;10.52;;
27670;SDS011;15077;49.704;9.908;2023-01-25T06:31:10;19.42;;;10.30;;
27670;SDS011;15077;49.704;9.908;2023-01-25T06:33:41;18.00;;;8.68;;
27670;SDS011;15077;49.704;9.908;2023-01-25T06:36:12;18.92;;;10.32;;
27670;SDS011;15077;49.704;9.908;2023-01-25T06:38:40;27.52;;;14.38;;
27670;SDS011;15077;49.704;9.908;2023-01-25T06:41:08;23.05;;;11.75;;
27670;SDS011;15077;49.704;9.908;2023-01-25T06:43:37;25.55;;;14.75;;
27670;SDS011;15077;49.704;9.908;2023-01-25T06:46:03;23.50;;;13.50;;
27670;SDS011;15077;49.704;9.908;2023-01-25T06:48:32;25.67;;;15.60;;
27670;SDS011;15077;49.704;9.908;2023-01-25T06:51:03;28.45;;;14.55;;
27670;SDS011;15077;49.704;9.908;2023-01-25T06:53:33;19.35;;;10.30;;
27670;SDS011;15077;49.704;9.908;2023-01-25T06:56:11;17.08;;;9.45;;
27670;SDS011;15077;49.704;9.908;2023-01-25T06:58:43;13.68;;;7.75;;
27670;SDS011;15077;49.704;9.908;2023-01-25T07:01:14;14.10;;;7.70;;
27670;SDS011;15077;49.704;9.908;2023-01-25T07:03:52;11.70;;;7.40;;
27670;SDS011;15077;49.704;9.908;2023-01-25T07:06:21;21.95;;;11.27;;
27670;SDS011;15077;49.704;9.908;2023-01-25T07:08:48;15.98;;;9.32;;
27670;SDS011;15077;49.704;9.908;2023-01-25T07:11:14;25.77;;;13.07;;
27670;SDS011;15077;49.704;9.908;2023-01-25T07:13:43;22.85;;;12.40;;
27670;SDS011;15077;49.704;9.908;2023-01-25T07:16:12;19.73;;;12.32;;
27670;SDS011;15077;49.704;9.908;2023-01-25T07:18:42;20.52;;;11.32;;
27670;SDS011;15077;49.704;9.908;2023-01-25T07:21:12;23.27;;;13.75;;
27670;SDS011;15077;49.704;9.908;2023-01-25T07:23:41;22.90;;;13.85;;
27670;SDS011;15077;49.704;9.908;2023-01-25T07:26:25;30.10;;;14.40;;
27670;SDS011;15077;49.704;9.908;2023-01-25T07:28:57;27.17;;;14.90;;
27670;SDS011;15077;49.704;9.908;2023-01-25T07:31:23;31.60;;;17.15;;
27670;SDS011;15077;49.704;9.908;2023-01-25T07:33:50;26.25;;;13.90;;
27670;SDS011;15077;49.704;9.908;2023-01-25T07:36:19;22.65;;;13.57;;
27670;SDS011;15077;49.704;9.908;2023-01-25T07:38:45;29.83;;;15.52;;
27670;SDS011;15077;49.704;9.908;2023-01-25T07:41:12;25.92;;;14.55;;
27670;SDS011;15077;49.704;9.908;2023-01-25T07:43:40;21.27;;;11.50;;
27670;SDS011;15077;49.704;9.908;2023-01-25T07:46:06;20.92;;;11.60;;
27670;SDS011;15077;49.704;9.908;2023-01-25T07:48:35;17.88;;;10.15;;
27670;SDS011;15077;49.704;9.908;2023-01-25T07:51:03;27.67;;;14.00;;
27670;SDS011;15077;49.704;9.908;2023-01-25T07:53:46;25.10;;;15.02;;
27670;SDS011;15077;49.704;9.908;2023-01-25T07:56:27;26.60;;;15.60;;
27670;SDS011;15077;49.704;9.908;2023-01-25T07:58:56;26.70;;;14.32;;
27670;SDS011;15077;49.704;9.908;2023-01-25T08:01:25;28.77;;;15.30;;
27670;SDS011;15077;49.704;9.908;2023-01-25T08:03:53;23.98;;;12.38;;
27670;SDS011;15077;49.704;9.908;2023-01-25T08:06:24;28.15;;;16.75;;
27670;SDS011;15077;49.704;9.908;2023-01-25T08:08:54;29.75;;;16.60;;
27670;SDS011;15077;49.704;9.908;2023-01-25T08:11:24;25.50;;;14.32;;
27670;SDS011;15077;49.704;9.908;2023-01-25T08:13:52;25.77;;;14.63;;
27670;SDS011;15077;49.704;9.908;2023-01-25T08:16:19;22.50;;;13.15;;
27670;SDS011;15077;49.704;9.908;2023-01-25T08:18:49;27.73;;;14.77;;
27670;SDS011;15077;49.704;9.908;2023-01-25T08:21:17;25.70;;;14.05;;
27670;SDS011;15077;49.704;9.908;2023-01-25T08:23:43;24.10;;;13.57;;
27670;SDS011;15077;49.704;9.908;2023-01-25T08:26:10;22.27;;;13.70;;
27670;SDS011;15077;49.704;9.908;2023-01-25T08:28:39;25.20;;;15.13;;
27670;SDS011;15077;49.704;9.908;2023-01-25T08:33:33;18.25;;;10.52;;
27670;SDS011;15077;49.704;9.908;2023-01-25T08:36:01;26.08;;;13.98;;
27670;SDS011;15077;49.704;9.908;2023-01-25T08:38:27;27.15;;;15.60;;
27670;SDS011;15077;49.704;9.908;2023-01-25T08:40:53;27.95;;;15.80;;
27670;SDS011;15077;49.704;9.908;2023-01-25T08:43:18;25.52;;;14.23;;
27670;SDS011;15077;49.704;9.908;2023-01-25T08:45:44;24.58;;;15.13;;
27670;SDS011;15077;49.704;9.908;2023-01-25T08:48:10;22.52;;;12.93;;
27670;SDS011;15077;49.704;9.908;2023-01-25T08:50:46;21.30;;;11.70;;
27670;SDS011;15077;49.704;9.908;2023-01-25T08:53:12;22.25;;;12.45;;
27670;SDS011;15077;49.704;9.908;2023-01-25T08:55:38;22.25;;;12.70;;
27670;SDS011;15077;49.704;9.908;2023-01-25T08:58:07;26.10;;;15.07;;
27670;SDS011;15077;49.704;9.908;2023-01-25T09:00:41;23.23;;;13.20;;
27670;SDS011;15077;49.704;9.908;2023-01-25T09:03:08;22.55;;;12.23;;
27670;SDS011;15077;49.704;9.908;2023-01-25T09:05:36;19.92;;;12.40;;
27670;SDS011;15077;49.704;9.908;2023-01-25T09:08:04;24.90;;;13.85;;
27670;SDS011;15077;49.704;9.908;2023-01-25T09:10:32;26.30;;;14.60;;
27670;SDS011;15077;49.704;9.908;2023-01-25T09:12:58;22.15;;;12.48;;
27670;SDS011;15077;49.704;9.908;2023-01-25T09:15:24;23.88;;;13.32;;
27670;SDS011;15077;49.704;9.908;2023-01-25T09:17:51;17.25;;;10.30;;
27670;SDS011;15077;49.704;9.908;2023-01-25T09:20:21;23.45;;;12.82;;
27670;SDS011;15077;49.704;9.908;2023-01-25T09:22:48;23.13;;;12.57;;
27670;SDS011;15077;49.704;9.908;2023-01-25T09:25:13;20.40;;;11.68;;
27670;SDS011;15077;49.704;9.908;2023-01-25T09:27:40;19.38;;;11.73;;
27670;SDS011;15077;49.704;9.908;2023-01-25T09:30:07;20.70;;;12.25;;
27670;SDS011;15077;49.704;9.908;2023-01-25T09:32:35;21.05;;;12.18;;
27670;SDS011;15077;49.704;9.908;2023-01-25T09:35:01;19.35;;;10.30;;
27670;SDS011;15077;49.704;9.908;2023-01-25T09:37:28;21.75;;;12.77;;
27670;SDS011;15077;49.704;9.908;2023-01-25T09:39:54;27.25;;;13.85;;
27670;SDS011;15077;49.704;9.908;2023-01-25T09:54:02;23.92;;;14.40;;
27670;SDS011;15077;49.704;9.908;2023-01-25T09:56:32;23.38;;;14.05;;
27670;SDS011;15077;49.704;9.908;2023-01-25T09:59:03;23.13;;;13.13;;
27670;SDS011;15077;49.704;9.908;2023-01-25T10:07:05;22.98;;;11.60;;
27670;SDS011;15077;49.704;9.908;2023-01-25T10:09:51;19.30;;;11.23;;
27670;SDS011;15077;49.704;9.908;2023-01-25T10:12:27;18.95;;;10.95;;
27670;SDS011;15077;49.704;9.908;2023-01-25T10:15:00;23.73;;;14.43;;
27670;SDS011;15077;49.704;9.908;2023-01-25T10:26:26;26.40;;;14.75;;
27670;SDS011;15077;49.704;9.908;2023-01-25T10:29:17;28.08;;;15.85;;
27670;SDS011;15077;49.704;9.908;2023-01-25T10:31:47;24.08;;;13.75;;
27670;SDS011;15077;49.704;9.908;2023-01-25T10:34:31;20.48;;;10.25;;
27670;SDS011;15077;49.704;9.908;2023-01-25T10:37:21;27.48;;;14.38;;
27670;SDS011;15077;49.704;9.908;2023-01-25T10:39:58;26.85;;;13.82;;
27670;SDS011;15077;49.704;9.908;2023-01-25T10:42:59;23.02;;;13.70;;
27670;SDS011;15077;49.704;9.908;2023-01-25T10:45:36;24.65;;;13.45;;
27670;SDS011;15077;49.704;9.908;2023-01-25T10:48:05;23.02;;;12.13;;
27670;SDS011;15077;49.704;9.908;2023-01-25T10:53:29;21.08;;;12.68;;
27670;SDS011;15077;49.704;9.908;2023-01-25T11:01:09;28.65;;;14.02;;
27670;SDS011;15077;49.704;9.908;2023-01-25T11:03:48;24.23;;;15.13;;
27670;SDS011;15077;49.704;9.908;2023-01-25T11:06:14;26.33;;;15.10;;
27670;SDS011;15077;49.704;9.908;2023-01-25T11:11:52;24.65;;;12.93;;
27670;SDS011;15077;49.704;9.908;2023-01-25T11:14:39;31.80;;;16.40;;
27670;SDS011;15077;49.704;9.908;2023-01-25T11:17:05;24.70;;;14.90;;
27670;SDS011;15077;49.704;9.908;2023-01-25T11:22:48;25.70;;;14.18;;
27670;SDS011;15077;49.704;9.908;2023-01-25T11:25:29;23.00;;;13.25;;
27670;SDS011;15077;49.704;9.908;2023-01-25T11:30:47;24.77;;;13.80;;
27670;SDS011;15077;49.704;9.908;2023-01-25T11:33:16;24.90;;;13.23;;
27670;SDS011;15077;49.704;9.908;2023-01-25T11:47:33;15.75;;;9.10;;
27670;SDS011;15077;49.704;9.908;2023-01-25T12:05:27;17.02;;;9.68;;
27670;SDS011;15077;49.704;9.908;2023-01-25T12:19:28;21.95;;;12.05;;
27670;SDS011;15077;49.704;9.908;2023-01-25T12:25:39;19.60;;;11.32;;
27670;SDS011;15077;49.704;9.908;2023-01-25T12:28:47;21.77;;;12.27;;
27670;SDS011;15077;49.704;9.908;2023-01-25T12:33:59;27.88;;;15.75;;
27670;SDS011;15077;49.704;9.908;2023-01-25T12:36:44;24.30;;;13.15;;
27670;SDS011;15077;49.704;9.908;2023-01-25T12:39:13;21.75;;;13.32;;
27670;SDS011;15077;49.704;9.908;2023-01-25T12:42:03;27.13;;;14.18;;
27670;SDS011;15077;49.704;9.908;2023-01-25T12:44:51;23.25;;;11.95;;
27670;SDS011;15077;49.704;9.908;2023-01-25T12:47:38;20.25;;;10.40;;
27670;SDS011;15077;49.704;9.908;2023-01-25T12:50:16;18.05;;;9.48;;
27670;SDS011;15077;49.704;9.908;2023-01-25T12:55:31;19.83;;;12.00;;
27670;SDS011;15077;49.704;9.908;2023-01-25T12:58:03;26.48;;;15.25;;
27670;SDS011;15077;49.704;9.908;2023-01-25T13:03:27;19.98;;;12.27;;
27670;SDS011;15077;49.704;9.908;2023-01-25T13:09:28;19.77;;;11.48;;
27670;SDS011;15077;49.704;9.908;2023-01-25T13:12:15;24.02;;;13.18;;
27670;SDS011;15077;49.704;9.908;2023-01-25T13:14:41;21.33;;;9.98;;
27670;SDS011;15077;49.704;9.908;2023-01-25T13:19:56;20.80;;;11.90;;
27670;SDS011;15077;49.704;9.908;2023-01-25T13:25:13;15.43;;;8.85;;
27670;SDS011;15077;49.704;9.908;2023-01-25T13:27:46;16.30;;;8.65;;
27670;SDS011;15077;49.704;9.908;2023-01-25T13:40:36;9.27;;;6.50;;
27670;SDS011;15077;49.704;9.908;2023-01-25T13:45:47;13.40;;;7.55;;
27670;SDS011;15077;49.704;9.908;2023-01-25T13:48:20;17.75;;;10.25;;
27670;SDS011;15077;49.704;9.908;2023-01-25T13:50:56;12.77;;;7.75;;
27670;SDS011;15077;49.704;9.908;2023-01-25T13:53:27;11.65;;;6.45;;
27670;SDS011;15077;49.704;9.908;2023-01-25T13:55:57;10.60;;;6.28;;
27670;SDS011;15077;49.704;9.908;2023-01-25T13:58:25;15.52;;;7.90;;
27670;SDS011;15077;49.704;9.908;2023-01-25T14:03:27;13.65;;;7.63;;
27670;SDS011;15077;49.704;9.908;2023-01-25T14:05:55;11.90;;;6.15;;
27670;SDS011;15077;49.704;9.908;2023-01-25T14:08:26;11.70;;;7.07;;
27670;SDS011;15077;49.704;9.908;2023-01-25T14:10:53;15.88;;;9.48;;
27670;SDS011;15077;49.704;9.908;2023-01-25T14:13:20;13.80;;;7.82;;
27670;SDS011;15077;49.704;9.908;2023-01-25T14:18:26;16.80;;;9.93;;
27670;SDS011;15077;49.704;9.908;2023-01-25T14:21:17;18.17;;;9.75;;
27670;SDS011;15077;49.704;9.908;2023-01-25T14:23:45;19.70;;;12.35;;
27670;SDS011;15077;49.704;9.908;2023-01-25T14:26:19;23.52;;;12.55;;
27670;SDS011;15077;49.704;9.908;2023-01-25T14:28:55;16.48;;;9.20;;
27670;SDS011;15077;49.704;9.908;2023-01-25T14:31:23;17.88;;;9.90;;
27670;SDS011;15077;49.704;9.908;2023-01-25T14:33:55;17.65;;;10.23;;
27670;SDS011;15077;49.704;9.908;2023-01-25T14:36:27;17.10;;;8.93;;
27670;SDS011;15077;49.704;9.908;2023-01-25T14:38:55;19.55;;;11.52;;
27670;SDS011;15077;49.704;9.908;2023-01-25T14:41:26;15.90;;;9.38;;
27670;SDS011;15077;49.704;9.908;2023-01-25T14:44:01;19.20;;;10.57;;
27670;SDS011;15077;49.704;9.908;2023-01-25T14:46:39;18.65;;;9.90;;
27670;SDS011;15077;49.704;9.908;2023-01-25T14:54:15;25.00;;;13.48;;
27670;SDS011;15077;49.704;9.908;2023-01-25T14:56:46;18.20;;;10.95;;
27670;SDS011;15077;49.704;9.908;2023-01-25T15:01:52;18.58;;;11.07;;
27670;SDS011;15077;49.704;9.908;2023-01-25T15:04:22;19.13;;;11.50;;
27670;SDS011;15077;49.704;9.908;2023-01-25T15:06:52;22.50;;;12.80;;
27670;SDS011;15077;49.704;9.908;2023-01-25T15:09:39;22.52;;;12.65;;
27670;SDS011;15077;49.704;9.908;2023-01-25T15:14:53;19.92;;;11.63;;
27670;SDS011;15077;49.704;9.908;2023-01-25T15:17:43;20.92;;;11.60;;
27670;SDS011;15077;49.704;9.908;2023-01-25T15:20:29;16.50;;;9.48;;
27670;SDS011;15077;49.704;9.908;2023-01-25T15:25:53;15.53;;;8.47;;
27670;SDS011;15077;49.704;9.908;2023-01-25T15:30:53;20.55;;;11.90;;
27670;SDS011;15077;49.704;9.908;2023-01-25T15:33:25;15.75;;;9.80;;
27670;SDS011;15077;49.704;9.908;2023-01-25T15:35:53;16.10;;;9.60;;
27670;SDS011;15077;49.704;9.908;2023-01-25T15:38:20;22.02;;;12.55;;
27670;SDS011;15077;49.704;9.908;2023-01-25T15:40:47;26.63;;;14.38;;
27670;SDS011;15077;49.704;9.908;2023-01-25T15:43:13;23.65;;;13.77;;
27670;SDS011;15077;49.704;9.908;2023-01-25T15:45:42;17.58;;;9.98;;
27670;SDS011;15077;49.704;9.908;2023-01-25T15:48:15;12.88;;;7.45;;
27670;SDS011;15077;49.704;9.908;2023-01-25T15:50:47;10.80;;;6.25;;
27670;SDS011;15077;49.704;9.908;2023-01-25T15:53:14;11.27;;;6.07;;
27670;SDS011;15077;49.704;9.908;2023-01-25T15:55:42;9.77;;;5.85;;
27670;SDS011;15077;49.704;9.908;2023-01-25T15:58:12;11.07;;;6.25;;
27670;SDS011;15077;49.704;9.908;2023-01-25T16:00:52;12.68;;;7.88;;
27670;SDS011;15077;49.704;9.908;2023-01-25T16:03:19;18.60;;;11.10;;
27670;SDS011;15077;49.704;9.908;2023-01-25T16:05:49;14.15;;;8.23;;
27670;SDS011;15077;49.704;9.908;2023-01-25T16:08:25;11.73;;;6.43;;
27670;SDS011;15077;49.704;9.908;2023-01-25T16:10:51;10.13;;;6.32;;
27670;SDS011;15077;49.704;9.908;2023-01-25T16:13:16;12.27;;;7.72;;
27670;SDS011;15077;49.704;9.908;2023-01-25T16:15:42;12.00;;;7.55;;
27670;SDS011;15077;49.704;9.908;2023-01-25T16:18:13;14.32;;;8.98;;
27670;SDS011;15077;49.704;9.908;2023-01-25T16:20:39;17.95;;;9.88;;
27670;SDS011;15077;49.704;9.908;2023-01-25T16:23:07;9.73;;;6.22;;
27670;SDS011;15077;49.704;9.908;2023-01-25T16:25:33;13.30;;;7.97;;
27670;SDS011;15077;49.704;9.908;2023-01-25T16:27:58;10.43;;;6.15;;
27670;SDS011;15077;49.704;9.908;2023-01-25T16:30:24;14.82;;;7.13;;
27670;SDS011;15077;49.704;9.908;2023-01-25T16:32:53;17.27;;;9.35;;
27670;SDS011;15077;49.704;9.908;2023-01-25T16:35:19;15.35;;;9.18;;
27670;SDS011;15077;49.704;9.908;2023-01-25T16:37:45;15.18;;;8.38;;
27670;SDS011;15077;49.704;9.908;2023-01-25T16:40:31;14.30;;;7.95;;
27670;SDS011;15077;49.704;9.908;2023-01-25T16:43:02;12.45;;;7.30;;
27670;SDS011;15077;49.704;9.908;2023-01-25T16:45:28;10.98;;;6.45;;
27670;SDS011;15077;49.704;9.908;2023-01-25T16:47:54;10.25;;;5.90;;
27670;SDS011;15077;49.704;9.908;2023-01-25T16:50:21;9.55;;;5.82;;
27670;SDS011;15077;49.704;9.908;2023-01-25T16:52:47;10.68;;;6.40;;
27670;SDS011;15077;49.704;9.908;2023-01-25T16:55:15;9.65;;;4.95;;
27670;SDS011;15077;49.704;9.908;2023-01-25T16:57:43;11.32;;;5.85;;
27670;SDS011;15077;49.704;9.908;2023-01-25T17:00:13;9.32;;;5.05;;
27670;SDS011;15077;49.704;9.908;2023-01-25T17:02:40;13.85;;;8.55;;
27670;SDS011;15077;49.704;9.908;2023-01-25T17:05:07;21.00;;;11.93;;
27670;SDS011;15077;49.704;9.908;2023-01-25T17:07:34;23.42;;;13.57;;
27670;SDS011;15077;49.704;9.908;2023-01-25T17:10:01;26.48;;;13.75;;
27670;SDS011;15077;49.704;9.908;2023-01-25T17:12:27;20.35;;;10.25;;
27670;SDS011;15077;49.704;9.908;2023-01-25T17:14:54;20.85;;;9.82;;
27670;SDS011;15077;49.704;9.908;2023-01-25T17:17:20;20.75;;;10.68;;
27670;SDS011;15077;49.704;9.908;2023-01-25T17:19:47;21.60;;;12.77;;
27670;SDS011;15077;49.704;9.908;2023-01-25T17:22:15;19.45;;;10.48;;